Time;durP1;ratioP1;P1;durP2;ratioP2;P2;SDS_P1;SDS_P2;PMS_P1;PMS_P2;Temp;Humidity;BMP_temperature;BMP_pressure;BME280_temperature;BME280_humidity;BME280_pressure;Samples;Min_cycle;Max_cycle;Signal;HPM_P1;HPM_P2
2022/02/14 00:02:05;;;;;;;6.85;3.20;;;9.40;80.10;;;;;;5055081;28;20075;-32
2022/02/14 00:04:31;;;;;;;7.13;3.45;;;9.40;80.80;;;;;;5054898;28;20045;-32
2022/02/14 00:06:57;;;;;;;5.10;2.97;;;9.40;80.00;;;;;;5054925;28;20072;-35
2022/02/14 00:09:22;;;;;;;4.25;2.80;;;9.40;79.90;;;;;;5054969;28;20029;-31
2022/02/14 00:11:48;;;;;;;6.22;3.25;;;9.30;80.40;;;;;;5055214;28;20032;-31
2022/02/14 00:14:14;;;;;;;4.72;3.10;;;9.40;81.10;;;;;;5054841;28;20025;-31
2022/02/14 00:16:39;;;;;;;5.65;3.35;;;9.30;80.70;;;;;;5054741;28;20025;-33
2022/02/14 00:19:05;;;;;;;6.53;3.33;;;9.30;80.50;;;;;;5054706;28;20386;-31
2022/02/14 00:21:31;;;;;;;7.45;3.20;;;9.30;80.10;;;;;;5055100;28;20025;-31
2022/02/14 00:23:56;;;;;;;5.45;2.95;;;9.40;79.60;;;;;;5054629;28;20032;-31
2022/02/14 00:26:22;;;;;;;4.45;2.60;;;9.40;79.30;;;;;;5054503;28;20043;-32
2022/02/14 00:28:48;;;;;;;5.97;2.80;;;9.40;79.00;;;;;;5054596;28;20017;-34
2022/02/14 00:31:13;;;;;;;5.32;2.60;;;9.50;78.90;;;;;;5054490;28;20021;-33
2022/02/14 00:33:39;;;;;;;7.53;2.67;;;9.50;78.80;;;;;;5054367;28;20484;-31
2022/02/14 00:36:04;;;;;;;5.13;2.83;;;9.60;78.60;;;;;;5054534;28;20025;-32
2022/02/14 00:38:30;;;;;;;4.03;2.80;;;9.60;78.30;;;;;;5054365;28;20036;-31
2022/02/14 00:40:56;;;;;;;4.88;2.60;;;9.60;78.00;;;;;;5054389;28;20025;-38
2022/02/14 00:43:21;;;;;;;5.45;2.90;;;9.60;77.70;;;;;;5054172;28;20041;-37
2022/02/14 00:45:49;;;;;;;5.22;2.78;;;9.70;77.60;;;;;;5054193;28;20079;-32
2022/02/14 00:48:14;;;;;;;3.95;2.70;;;9.70;77.70;;;;;;5053604;28;20017;-33
2022/02/14 00:50:40;;;;;;;5.80;2.80;;;9.70;78.10;;;;;;5054125;28;20032;-33
2022/02/14 00:53:07;;;;;;;4.85;2.60;;;9.70;77.80;;;;;;5054423;28;20519;-32
2022/02/14 00:55:33;;;;;;;5.53;2.83;;;9.70;77.70;;;;;;5054042;28;20021;-33
2022/02/14 00:57:59;;;;;;;4.25;2.67;;;9.70;77.70;;;;;;5054047;28;20031;-32
2022/02/14 01:00:25;;;;;;;4.97;2.78;;;9.80;77.50;;;;;;5053906;28;20025;-32
2022/02/14 01:02:50;;;;;;;4.25;2.65;;;9.80;77.70;;;;;;5053963;28;20033;-33
2022/02/14 01:05:16;;;;;;;4.68;2.60;;;9.80;77.50;;;;;;5053783;28;20120;-31
2022/02/14 01:07:42;;;;;;;4.78;2.65;;;9.80;77.60;;;;;;5054135;28;20059;-32
2022/02/14 01:10:10;;;;;;;6.03;2.80;;;9.80;77.40;;;;;;5054060;28;20013;-31
2022/02/14 01:12:38;;;;;;;6.55;2.80;;;9.80;77.70;;;;;;5053678;28;20029;-31
2022/02/14 01:15:05;;;;;;;4.45;2.80;;;9.80;77.50;;;;;;5053989;28;20477;-31
2022/02/14 01:17:33;;;;;;;5.75;2.40;;;9.80;77.50;;;;;;5053660;28;20025;-32
2022/02/14 01:20:00;;;;;;;4.43;2.80;;;9.80;77.70;;;;;;5053518;28;20055;-31
2022/02/14 01:22:25;;;;;;;3.97;2.50;;;9.80;77.70;;;;;;5053492;28;20028;-36
2022/02/14 01:24:51;;;;;;;4.72;2.35;;;9.80;77.50;;;;;;5053790;28;20017;-37
2022/02/14 01:27:16;;;;;;;3.75;2.70;;;9.80;77.40;;;;;;5053406;28;20055;-32
2022/02/14 01:29:42;;;;;;;4.40;2.75;;;9.80;78.80;;;;;;5053714;28;20021;-32
2022/02/14 01:32:08;;;;;;;5.05;2.53;;;9.80;78.00;;;;;;5053310;28;20562;-36
2022/02/14 01:34:33;;;;;;;6.15;2.67;;;9.80;77.90;;;;;;5053312;28;20028;-33
2022/02/14 01:36:59;;;;;;;4.95;2.40;;;9.90;77.70;;;;;;5053167;28;20102;-31
2022/02/14 01:39:28;;;;;;;4.00;2.30;;;9.90;77.30;;;;;;5053173;28;20106;-31
2022/02/14 01:41:57;;;;;;;5.25;2.25;;;9.90;77.10;;;;;;5053286;28;20021;-34
2022/02/14 01:44:44;;;;;;;5.47;2.40;;;10.00;77.10;;;;;;5053049;28;20053;-31
2022/02/14 01:47:15;;;;;;;3.83;2.22;;;10.00;76.90;;;;;;5053128;28;20149;-31
2022/02/14 01:49:42;;;;;;;5.20;2.47;;;10.00;77.20;;;;;;5053300;28;20521;-33
2022/02/14 01:52:09;;;;;;;5.20;2.55;;;10.00;77.10;;;;;;5053174;28;20096;-34
2022/02/14 01:54:37;;;;;;;4.00;2.10;;;10.00;77.10;;;;;;5052944;28;20021;-33
2022/02/14 01:57:04;;;;;;;3.58;2.00;;;10.00;76.80;;;;;;5052966;28;20029;-32
2022/02/14 01:59:30;;;;;;;3.47;2.22;;;10.00;76.70;;;;;;5052067;28;20500;-33
2022/02/14 02:01:55;;;;;;;4.32;2.35;;;10.00;76.80;;;;;;5052935;28;20024;-33
2022/02/14 02:04:21;;;;;;;4.18;2.38;;;10.00;77.00;;;;;;5052784;28;20053;-34
2022/02/14 02:06:47;;;;;;;4.93;2.00;;;10.00;76.70;;;;;;5052561;28;20025;-32
2022/02/14 02:09:13;;;;;;;3.97;2.45;;;10.00;76.70;;;;;;5052651;28;20532;-32
2022/02/14 02:14:24;;;;;;;4.55;2.13;;;10.00;76.70;;;;;;5052928;28;20120;-31
2022/02/14 02:16:50;;;;;;;4.20;2.13;;;10.10;76.80;;;;;;5052797;28;20100;-34
2022/02/14 02:19:16;;;;;;;5.32;2.47;;;10.10;76.80;;;;;;5052817;28;20041;-33
2022/02/14 02:21:46;;;;;;;4.43;2.33;;;10.10;77.50;;;;;;5052796;28;20102;-33
2022/02/14 02:24:17;;;;;;;2.85;1.95;;;10.10;77.40;;;;;;5052715;28;20063;-37
2022/02/14 02:27:02;;;;;;;4.05;2.08;;;10.10;77.20;;;;;;5052666;28;20104;-32
2022/02/14 02:29:28;;;;;;;4.55;1.90;;;10.10;77.10;;;;;;5052756;28;20430;-34
2022/02/14 02:31:55;;;;;;;2.38;1.67;;;10.10;77.70;;;;;;5052692;28;20029;-32
2022/02/14 02:34:21;;;;;;;4.38;1.70;;;10.10;77.10;;;;;;5052435;28;20017;-31
2022/02/14 02:36:54;;;;;;;4.18;1.90;;;10.10;77.30;;;;;;5052505;28;20074;-31
2022/02/14 02:39:21;;;;;;;2.67;1.77;;;10.10;78.90;;;;;;5052816;28;20075;-31
2022/02/14 02:41:47;;;;;;;5.25;2.00;;;10.10;79.60;;;;;;5052427;28;20025;-31
2022/02/14 02:44:13;;;;;;;6.28;2.30;;;10.20;79.00;;;;;;5053139;28;20385;-33
2022/02/14 02:46:40;;;;;;;5.55;2.50;;;10.20;79.80;;;;;;5052656;28;20021;-36
2022/02/14 02:49:14;;;;;;;2.97;1.80;;;10.20;79.00;;;;;;5052679;28;20388;-37
2022/02/14 02:51:42;;;;;;;6.90;2.38;;;10.20;78.60;;;;;;5052450;28;20053;-33
2022/02/14 02:54:08;;;;;;;5.25;2.15;;;10.20;78.40;;;;;;5052447;28;20523;-31
2022/02/14 02:56:36;;;;;;;3.55;1.95;;;10.20;78.20;;;;;;5052208;28;20480;-33
2022/02/14 02:59:01;;;;;;;3.25;1.90;;;10.20;77.90;;;;;;5052362;28;20029;-31
2022/02/14 03:01:27;;;;;;;5.47;1.95;;;10.30;78.20;;;;;;5052123;28;20385;-31
2022/02/14 03:03:53;;;;;;;4.05;1.95;;;10.20;78.30;;;;;;5052179;28;20056;-32
2022/02/14 03:06:20;;;;;;;4.75;2.00;;;10.20;78.30;;;;;;5052135;28;20021;-31
2022/02/14 03:08:46;;;;;;;3.42;1.63;;;10.20;78.00;;;;;;5052135;28;20396;-31
2022/02/14 03:11:11;;;;;;;5.10;1.80;;;10.20;78.00;;;;;;5053421;28;20017;-33
2022/02/14 03:13:37;;;;;;;2.80;1.80;;;10.20;78.20;;;;;;5055898;28;20477;-34
2022/02/14 03:16:03;;;;;;;3.72;2.08;;;10.20;78.20;;;;;;5055947;28;20075;-39
2022/02/14 03:18:29;;;;;;;4.47;2.03;;;10.10;77.70;;;;;;5056065;28;20545;-35
2022/02/14 03:20:54;;;;;;;5.40;1.98;;;10.20;77.70;;;;;;5055787;28;20036;-31
2022/02/14 03:23:20;;;;;;;3.20;1.80;;;10.20;77.50;;;;;;5055704;28;20021;-32
2022/02/14 03:25:46;;;;;;;2.67;1.65;;;10.20;77.90;;;;;;5055572;28;20033;-32
2022/02/14 03:28:11;;;;;;;3.53;1.80;;;10.30;78.30;;;;;;5055629;28;20021;-31
2022/02/14 03:30:37;;;;;;;3.28;1.85;;;10.30;77.80;;;;;;5055533;28;20029;-31
2022/02/14 03:33:02;;;;;;;7.55;1.92;;;10.40;77.40;;;;;;5055388;28;20021;-32
2022/02/14 03:35:28;;;;;;;5.65;1.92;;;10.40;77.10;;;;;;5055528;28;20029;-35
2022/02/14 03:37:53;;;;;;;4.28;1.63;;;10.40;77.60;;;;;;5055589;28;20025;-36
2022/02/14 03:40:19;;;;;;;3.45;1.65;;;10.40;79.30;;;;;;5055535;28;20021;-32
2022/02/14 03:42:44;;;;;;;5.07;1.52;;;10.50;78.40;;;;;;5055231;28;20052;-32
2022/02/14 03:45:10;;;;;;;3.78;1.80;;;10.50;77.80;;;;;;5055381;28;20418;-31
2022/02/14 03:47:35;;;;;;;2.58;1.63;;;10.50;77.40;;;;;;5055318;28;20103;-31
2022/02/14 03:50:01;;;;;;;3.05;1.30;;;10.60;77.30;;;;;;5055289;28;20047;-30
2022/02/14 03:52:27;;;;;;;4.38;1.60;;;10.50;76.90;;;;;;5055213;28;20067;-31
2022/02/14 03:54:53;;;;;;;7.95;1.90;;;10.60;77.00;;;;;;5055187;28;20481;-32
2022/02/14 03:57:19;;;;;;;3.03;1.30;;;10.60;76.90;;;;;;5055094;28;20469;-37
2022/02/14 03:59:44;;;;;;;4.15;1.70;;;10.60;76.80;;;;;;5055200;28;20028;-32
2022/02/14 04:02:10;;;;;;;4.85;1.65;;;10.60;76.70;;;;;;5055009;28;20024;-34
2022/02/14 04:04:35;;;;;;;4.40;1.70;;;10.70;76.60;;;;;;5054877;28;20013;-31
2022/02/14 04:07:01;;;;;;;4.43;1.60;;;10.70;76.40;;;;;;5054857;28;20063;-32
2022/02/14 04:09:26;;;;;;;3.45;1.60;;;10.70;76.20;;;;;;5054866;28;20013;-32
2022/02/14 04:11:52;;;;;;;2.42;1.58;;;10.70;76.20;;;;;;5053635;28;20152;-33
2022/02/14 04:14:17;;;;;;;3.85;1.60;;;10.70;76.50;;;;;;5054898;28;20115;-33
2022/02/14 04:16:43;;;;;;;3.97;1.55;;;10.80;77.40;;;;;;5053402;28;20120;-35
2022/02/14 04:19:08;;;;;;;4.15;1.70;;;10.80;77.00;;;;;;5054734;28;20426;-34
2022/02/14 04:21:34;;;;;;;3.35;1.80;;;10.80;77.10;;;;;;5054679;28;20592;-32
2022/02/14 04:24:00;;;;;;;5.22;1.55;;;10.90;76.50;;;;;;5053718;28;20531;-33
2022/02/14 04:26:25;;;;;;;4.18;1.73;;;10.90;76.00;;;;;;5054509;28;20029;-33
2022/02/14 04:28:51;;;;;;;3.30;1.73;;;11.00;76.00;;;;;;5054464;28;20024;-32
2022/02/14 04:31:16;;;;;;;2.80;1.58;;;11.00;75.90;;;;;;5054463;28;20021;-32
2022/02/14 04:33:42;;;;;;;4.75;1.60;;;11.00;76.10;;;;;;5054385;28;20103;-33
2022/02/14 04:36:07;;;;;;;4.05;1.45;;;11.00;76.10;;;;;;5054576;28;20029;-34
2022/02/14 04:38:33;;;;;;;4.53;1.60;;;11.10;77.20;;;;;;5054559;28;20056;-32
2022/02/14 04:40:59;;;;;;;3.47;1.65;;;11.10;76.70;;;;;;5054515;28;20425;-31
2022/02/14 04:43:24;;;;;;;2.72;1.52;;;11.10;76.10;;;;;;5053930;28;20088;-31
2022/02/14 04:45:50;;;;;;;3.30;1.60;;;11.20;76.10;;;;;;5054117;28;20021;-32
2022/02/14 04:48:15;;;;;;;3.95;1.60;;;11.20;75.80;;;;;;5054394;28;20499;-31
2022/02/14 04:50:41;;;;;;;2.58;1.35;;;11.20;75.30;;;;;;5054088;28;20104;-32
2022/02/14 04:53:06;;;;;;;3.63;1.45;;;11.20;75.10;;;;;;5054244;28;20032;-32
2022/02/14 04:55:32;;;;;;;2.72;1.40;;;11.20;75.00;;;;;;5054149;28;20488;-32
2022/02/14 04:57:57;;;;;;;3.47;1.70;;;11.20;74.90;;;;;;5053874;28;20500;-32
2022/02/14 05:00:23;;;;;;;3.10;1.52;;;11.20;74.80;;;;;;5054105;28;20029;-31
2022/02/14 05:02:49;;;;;;;2.20;1.17;;;11.20;75.10;;;;;;5053545;28;20025;-39
2022/02/14 05:05:14;;;;;;;4.13;1.42;;;11.30;74.90;;;;;;5053365;28;20052;-31
2022/02/14 05:07:41;;;;;;;2.42;1.42;;;11.30;74.80;;;;;;5053623;28;20024;-34
2022/02/14 05:10:08;;;;;;;3.38;1.55;;;11.30;74.90;;;;;;5053978;28;20040;-32
2022/02/14 05:12:34;;;;;;;3.55;1.40;;;11.30;74.70;;;;;;5053918;28;20468;-34
2022/02/14 05:15:00;;;;;;;2.40;1.38;;;11.30;75.20;;;;;;5053779;28;20048;-38
2022/02/14 05:17:25;;;;;;;3.53;1.38;;;11.30;75.40;;;;;;5053568;28;20033;-33
2022/02/14 05:19:51;;;;;;;2.50;1.23;;;11.30;75.00;;;;;;5053562;28;20074;-31
2022/02/14 05:22:17;;;;;;;1.63;0.95;;;11.30;74.60;;;;;;5053549;28;20037;-32
2022/02/14 05:24:42;;;;;;;3.25;1.50;;;11.30;76.10;;;;;;5053432;28;20025;-32
2022/02/14 05:27:08;;;;;;;3.00;1.20;;;11.30;76.00;;;;;;5053224;28;20075;-33
2022/02/14 05:29:33;;;;;;;3.50;1.20;;;11.30;75.60;;;;;;5053521;28;20025;-32
2022/02/14 05:31:59;;;;;;;1.35;1.17;;;11.40;77.20;;;;;;5053149;28;20017;-32
2022/02/14 05:34:24;;;;;;;5.82;1.50;;;11.40;76.30;;;;;;5053089;28;20025;-34
2022/02/14 05:36:50;;;;;;;3.45;1.40;;;11.30;75.70;;;;;;5053355;28;20154;-34
2022/02/14 05:39:15;;;;;;;1.98;1.30;;;11.30;76.40;;;;;;5053110;28;20048;-33
2022/02/14 05:41:41;;;;;;;2.50;1.13;;;11.40;76.20;;;;;;5053026;28;20099;-31
2022/02/14 05:44:07;;;;;;;2.20;1.30;;;11.40;75.80;;;;;;5052896;28;20462;-33
2022/02/14 05:46:32;;;;;;;2.33;1.20;;;11.40;75.40;;;;;;5053045;28;20501;-37
2022/02/14 05:48:58;;;;;;;1.88;1.48;;;11.40;75.10;;;;;;5053088;28;20539;-37
2022/02/14 05:51:24;;;;;;;1.83;1.17;;;11.40;75.30;;;;;;5053378;28;20021;-32
2022/02/14 05:53:50;;;;;;;3.58;1.33;;;11.40;74.90;;;;;;5053326;28;20021;-32
2022/02/14 05:56:16;;;;;;;2.15;1.10;;;11.40;74.90;;;;;;5052875;28;20041;-37
2022/02/14 05:58:42;;;;;;;1.60;1.17;;;11.40;75.20;;;;;;5052767;28;20051;-33
2022/02/14 06:01:08;;;;;;;1.95;1.25;;;11.40;75.20;;;;;;5052827;28;20025;-32
2022/02/14 06:03:34;;;;;;;4.05;1.63;;;11.40;75.70;;;;;;5053065;28;20055;-31
2022/02/14 06:06:00;;;;;;;3.10;1.40;;;11.50;75.20;;;;;;5052664;28;20448;-32
2022/02/14 06:08:26;;;;;;;2.33;1.23;;;11.50;75.00;;;;;;5052886;28;20075;-32
2022/02/14 06:10:51;;;;;;;4.15;1.80;;;11.50;76.00;;;;;;5052880;28;20017;-34
2022/02/14 06:13:17;;;;;;;3.30;1.30;;;11.50;75.90;;;;;;5052551;28;20049;-32
2022/02/14 06:15:43;;;;;;;2.05;1.48;;;11.50;76.60;;;;;;5052416;28;20017;-32
2022/02/14 06:18:09;;;;;;;2.53;1.30;;;11.50;75.90;;;;;;5052662;28;20029;-33
2022/02/14 06:20:35;;;;;;;1.92;1.10;;;11.50;76.00;;;;;;5052468;28;20029;-32
2022/02/14 06:23:01;;;;;;;4.35;1.50;;;11.50;75.80;;;;;;5052723;28;20033;-33
2022/02/14 06:25:26;;;;;;;4.30;1.52;;;11.50;76.10;;;;;;5052284;28;20028;-33
2022/02/14 06:27:52;;;;;;;1.55;1.10;;;11.50;75.50;;;;;;5052592;28;20035;-32
2022/02/14 06:30:19;;;;;;;3.55;1.30;;;11.50;76.20;;;;;;5052461;28;20496;-33
2022/02/14 06:32:45;;;;;;;2.13;1.35;;;11.50;75.90;;;;;;5052370;28;20171;-35
2022/02/14 06:35:11;;;;;;;1.83;1.30;;;11.50;75.50;;;;;;5052633;28;20445;-32
2022/02/14 06:37:37;;;;;;;2.55;1.40;;;11.50;75.10;;;;;;5052744;28;20033;-34
2022/02/14 06:40:04;;;;;;;3.00;1.15;;;11.50;74.60;;;;;;5052418;28;20032;-32
2022/02/14 06:42:30;;;;;;;2.45;1.30;;;11.50;76.00;;;;;;5052236;28;20076;-32
2022/02/14 06:44:55;;;;;;;2.05;1.30;;;11.50;75.30;;;;;;5052311;28;20056;-33
2022/02/14 06:47:23;;;;;;;1.52;0.98;;;11.50;75.10;;;;;;5055442;28;20025;-33
2022/02/14 06:49:49;;;;;;;2.70;1.10;;;11.50;75.20;;;;;;5056675;28;20401;-32
2022/02/14 06:52:14;;;;;;;2.40;1.15;;;11.50;75.70;;;;;;5056023;28;20043;-32
2022/02/14 06:54:40;;;;;;;3.13;1.50;;;11.60;75.50;;;;;;5055927;28;20024;-33
2022/02/14 06:57:05;;;;;;;3.50;1.40;;;11.60;74.90;;;;;;5055874;28;20021;-33
2022/02/14 06:59:31;;;;;;;2.38;1.40;;;11.60;74.70;;;;;;5056003;28;20409;-32
2022/02/14 07:01:57;;;;;;;4.25;1.33;;;11.60;74.50;;;;;;5055897;28;20029;-32
2022/02/14 07:04:22;;;;;;;5.53;1.60;;;11.60;74.20;;;;;;5055740;28;20058;-36
2022/02/14 07:06:48;;;;;;;1.85;1.30;;;11.60;74.90;;;;;;5055632;28;20472;-31
2022/02/14 07:09:13;;;;;;;2.53;1.42;;;11.60;74.80;;;;;;5056002;28;20465;-31
2022/02/14 07:11:43;;;;;;;2.10;1.40;;;11.60;74.40;;;;;;5055608;28;20009;-32
2022/02/14 07:14:10;;;;;;;4.35;1.50;;;11.60;74.20;;;;;;5056085;28;20418;-31
2022/02/14 07:16:36;;;;;;;2.38;1.27;;;11.60;74.60;;;;;;5054632;28;20473;-31
2022/02/14 07:19:02;;;;;;;2.72;1.33;;;11.60;74.50;;;;;;5054298;28;20021;-34
2022/02/14 07:21:27;;;;;;;2.63;1.27;;;11.60;74.20;;;;;;5055506;28;20031;-31
2022/02/14 07:23:54;;;;;;;2.95;1.40;;;11.60;74.20;;;;;;5055467;28;20029;-30
2022/02/14 07:26:20;;;;;;;2.78;1.17;;;11.70;74.90;;;;;;5054018;28;20044;-31
2022/02/14 07:28:46;;;;;;;1.67;1.10;;;11.70;74.80;;;;;;5055336;28;20047;-31
2022/02/14 07:31:11;;;;;;;2.63;1.40;;;11.70;74.90;;;;;;5055405;28;20085;-33
2022/02/14 07:33:37;;;;;;;5.43;1.83;;;11.70;75.70;;;;;;5055464;28;20021;-31
2022/02/14 07:36:03;;;;;;;2.90;1.30;;;11.80;75.80;;;;;;5055265;28;20029;-31
2022/02/14 07:38:29;;;;;;;2.35;1.52;;;11.80;75.40;;;;;;5055354;28;20434;-30
2022/02/14 07:40:55;;;;;;;1.92;1.40;;;11.80;75.20;;;;;;5055126;28;20021;-31
2022/02/14 07:43:21;;;;;;;3.30;1.50;;;11.80;75.40;;;;;;5055087;28;20377;-37
2022/02/14 07:45:46;;;;;;;1.65;1.30;;;11.80;74.90;;;;;;5055024;28;20453;-34
2022/02/14 07:48:12;;;;;;;2.13;1.20;;;11.80;74.80;;;;;;5055081;28;20079;-33
2022/02/14 07:50:38;;;;;;;3.20;1.35;;;11.80;75.00;;;;;;5055023;28;20047;-30
2022/02/14 07:53:03;;;;;;;2.70;1.40;;;11.80;74.90;;;;;;5055087;28;20041;-31
2022/02/14 07:55:29;;;;;;;3.25;1.40;;;11.80;74.80;;;;;;5055192;28;20013;-35
2022/02/14 07:57:55;;;;;;;2.97;1.95;;;11.80;74.80;;;;;;5053786;28;20033;-36
2022/02/14 08:00:22;;;;;;;1.67;1.40;;;11.80;74.90;;;;;;5055575;28;20083;-33
2022/02/14 08:02:48;;;;;;;3.15;1.60;;;11.80;75.00;;;;;;5055030;28;20112;-35
2022/02/14 08:05:14;;;;;;;2.38;1.17;;;11.80;75.20;;;;;;5055171;28;20108;-32
2022/02/14 08:07:39;;;;;;;3.13;1.23;;;11.80;75.10;;;;;;5055024;28;20025;-33
2022/02/14 08:10:05;;;;;;;4.57;1.48;;;11.80;75.80;;;;;;5055205;28;20031;-30
2022/02/14 08:12:31;;;;;;;2.60;1.33;;;11.80;75.70;;;;;;5054910;28;20046;-32
2022/02/14 08:14:57;;;;;;;3.08;1.35;;;11.80;75.50;;;;;;5054808;28;20017;-32
2022/02/14 08:17:23;;;;;;;2.78;1.52;;;11.90;75.30;;;;;;5054881;28;20029;-33
2022/02/14 08:19:48;;;;;;;3.70;1.00;;;11.90;75.00;;;;;;5054678;28;20389;-32
2022/02/14 08:22:14;;;;;;;1.83;1.00;;;11.80;75.40;;;;;;5054587;28;20028;-33
2022/02/14 08:24:39;;;;;;;2.67;0.80;;;11.70;77.10;;;;;;5054870;28;20108;-31
2022/02/14 08:27:05;;;;;;;0.90;0.85;;;11.40;77.80;;;;;;5054538;28;20057;-32
2022/02/14 08:29:31;;;;;;;0.65;0.65;;;11.10;78.60;;;;;;5054628;28;20053;-31
2022/02/14 08:31:56;;;;;;;1.63;0.63;;;10.80;79.70;;;;;;5054685;28;20469;-30
2022/02/14 08:34:22;;;;;;;2.78;0.68;;;10.60;80.80;;;;;;5054405;28;20060;-33
2022/02/14 08:36:48;;;;;;;1.88;0.75;;;10.40;81.30;;;;;;5054563;28;20025;-32
2022/02/14 08:39:15;;;;;;;1.35;0.90;;;10.30;82.10;;;;;;5054544;28;20475;-31
2022/02/14 08:41:41;;;;;;;1.02;0.90;;;10.20;82.50;;;;;;5054167;28;20032;-31
2022/02/14 08:44:07;;;;;;;1.00;0.90;;;10.10;82.80;;;;;;5054047;28;20530;-32
2022/02/14 08:46:33;;;;;;;2.90;0.93;;;10.00;83.20;;;;;;5054064;28;20492;-32
2022/02/14 08:49:00;;;;;;;2.15;0.70;;;10.00;83.40;;;;;;5054423;28;20093;-37
2022/02/14 08:51:26;;;;;;;2.85;0.73;;;9.90;83.50;;;;;;5054172;28;20020;-33
2022/02/14 08:53:53;;;;;;;1.48;0.80;;;9.90;83.50;;;;;;5053886;28;20060;-31
2022/02/14 08:56:19;;;;;;;2.88;0.80;;;10.00;83.80;;;;;;5053944;28;20439;-32
2022/02/14 08:58:45;;;;;;;1.33;0.50;;;10.00;83.80;;;;;;5054114;28;20025;-33
2022/02/14 09:01:11;;;;;;;2.70;0.88;;;10.00;83.70;;;;;;5053780;28;20024;-30
2022/02/14 09:03:41;;;;;;;0.47;0.47;;;10.00;83.60;;;;;;5054066;28;20047;-31
2022/02/14 09:06:07;;;;;;;0.75;0.50;;;10.10;83.60;;;;;;5053800;28;20025;-33
2022/02/14 09:08:33;;;;;;;0.95;0.60;;;10.20;83.60;;;;;;5053246;28;20545;-33
2022/02/14 09:10:59;;;;;;;1.13;0.60;;;10.20;83.40;;;;;;5053662;28;20105;-31
2022/02/14 09:13:26;;;;;;;0.98;0.70;;;10.30;83.40;;;;;;5053488;28;20104;-33
2022/02/14 09:15:51;;;;;;;0.75;0.43;;;10.30;83.20;;;;;;5053811;28;20432;-33
2022/02/14 09:18:17;;;;;;;1.67;0.68;;;10.40;83.20;;;;;;5053597;28;20052;-31
2022/02/14 09:20:43;;;;;;;2.75;0.70;;;10.40;83.00;;;;;;5053661;28;20027;-34
2022/02/14 09:23:08;;;;;;;2.78;0.70;;;10.40;82.80;;;;;;5053571;28;20385;-35
2022/02/14 09:25:34;;;;;;;1.13;0.50;;;10.40;82.80;;;;;;5053231;28;20040;-31
2022/02/14 09:28:01;;;;;;;0.85;0.60;;;10.40;82.80;;;;;;5053382;28;20527;-33
2022/02/14 09:30:26;;;;;;;0.88;0.40;;;10.40;82.70;;;;;;5053440;28;20044;-31
2022/02/14 09:32:52;;;;;;;0.50;0.43;;;10.30;82.70;;;;;;5053448;28;20484;-33
2022/02/14 09:35:26;;;;;;;0.82;0.50;;;10.30;82.70;;;;;;5053420;28;20087;-32
2022/02/14 09:37:53;;;;;;;1.33;0.50;;;10.30;82.70;;;;;;5053249;28;20025;-35
2022/02/14 09:40:19;;;;;;;3.83;0.70;;;10.30;82.70;;;;;;5053340;28;20112;-31
2022/02/14 09:42:45;;;;;;;2.22;0.50;;;10.20;82.70;;;;;;5052999;28;20048;-32
2022/02/14 09:45:11;;;;;;;1.70;0.47;;;10.30;82.70;;;;;;5053105;28;20029;-32
2022/02/14 09:47:37;;;;;;;0.82;0.40;;;10.30;82.60;;;;;;5052811;28;20025;-34
2022/02/14 09:50:05;;;;;;;0.30;0.30;;;10.20;83.10;;;;;;5053160;28;20041;-32
2022/02/14 09:52:30;;;;;;;1.05;0.70;;;10.30;82.50;;;;;;5053238;28;20473;-37
2022/02/14 09:54:58;;;;;;;0.68;0.68;;;10.30;82.40;;;;;;5053100;28;20017;-32
2022/02/14 09:57:24;;;;;;;1.45;1.05;;;10.40;82.20;;;;;;5053229;28;20408;-31
2022/02/14 09:59:49;;;;;;;2.17;1.30;;;10.50;82.10;;;;;;5053072;28;20113;-31
2022/02/14 10:02:26;;;;;;;1.60;1.50;;;10.50;81.90;;;;;;5052830;28;20025;-32
2022/02/14 10:05:18;;;;;;;2.30;1.67;;;10.60;81.90;;;;;;5052973;28;20025;-34
2022/02/14 10:07:54;;;;;;;2.53;2.30;;;10.60;81.80;;;;;;5052889;28;20048;-30
2022/02/14 10:10:25;;;;;;;4.13;2.20;;;10.70;81.70;;;;;;5052815;28;20496;-33
2022/02/14 10:12:55;;;;;;;3.08;2.00;;;10.80;82.20;;;;;;5052796;28;20086;-34
2022/02/14 10:15:23;;;;;;;2.97;2.13;;;10.90;81.50;;;;;;5052695;28;20109;-31
2022/02/14 10:17:51;;;;;;;3.53;2.33;;;11.00;81.20;;;;;;5052469;28;20075;-34
2022/02/14 10:20:22;;;;;;;2.90;2.53;;;11.10;80.90;;;;;;5051856;28;20025;-31
2022/02/14 10:22:55;;;;;;;2.58;2.22;;;11.20;80.80;;;;;;5052300;28;20103;-31
2022/02/14 10:25:34;;;;;;;2.75;2.55;;;11.30;80.50;;;;;;5052378;28;20031;-36
2022/02/14 10:28:18;;;;;;;4.22;3.35;;;11.40;80.20;;;;;;5052461;28;20440;-32
2022/02/14 10:31:00;;;;;;;4.50;2.60;;;11.40;79.90;;;;;;5052213;28;20025;-32
2022/02/14 10:33:50;;;;;;;3.47;2.40;;;11.40;80.10;;;;;;5052144;28;20073;-32
2022/02/14 10:36:32;;;;;;;3.05;2.75;;;11.40;80.20;;;;;;5052203;28;20031;-33
2022/02/14 10:39:22;;;;;;;2.67;2.43;;;11.30;80.10;;;;;;5052165;28;20144;-32
2022/02/14 10:41:58;;;;;;;4.03;2.85;;;11.40;80.10;;;;;;5052357;28;20029;-30
2022/02/14 10:47:19;;;;;;;2.85;2.28;;;11.40;79.80;;;;;;5052226;28;20044;-32
2022/02/14 10:49:56;;;;;;;3.22;2.30;;;11.50;79.70;;;;;;5051093;28;20067;-32
2022/02/14 10:52:22;;;;;;;3.55;2.70;;;11.50;79.50;;;;;;5052259;28;20501;-34
2022/02/14 10:54:47;;;;;;;2.58;2.38;;;11.50;79.20;;;;;;5052497;28;20100;-31
2022/02/14 10:57:23;;;;;;;2.85;2.50;;;11.50;79.00;;;;;;5052256;28;20148;-32
2022/02/14 11:00:18;;;;;;;4.95;2.53;;;11.60;78.90;;;;;;5052261;28;20025;-33
2022/02/14 11:02:51;;;;;;;2.83;2.28;;;11.60;78.40;;;;;;5051995;28;20037;-34
2022/02/14 11:05:19;;;;;;;2.60;2.13;;;11.70;78.10;;;;;;5052226;28;20025;-37
2022/02/14 11:07:46;;;;;;;3.83;2.08;;;11.60;78.30;;;;;;5052220;28;20032;-33
2022/02/14 11:10:14;;;;;;;5.22;2.30;;;11.60;77.80;;;;;;5052319;28;20032;-35
2022/02/14 11:12:51;;;;;;;3.55;2.08;;;11.50;77.80;;;;;;5052237;28;20087;-31
2022/02/14 11:15:16;;;;;;;2.33;2.13;;;11.50;77.80;;;;;;5052261;28;20021;-32
2022/02/14 11:17:48;;;;;;;3.90;2.22;;;11.40;77.80;;;;;;5052126;28;20029;-34
2022/02/14 11:20:15;;;;;;;4.22;2.42;;;11.40;77.90;;;;;;5052357;28;20025;-33
2022/02/14 11:22:44;;;;;;;4.13;2.33;;;11.40;77.90;;;;;;5052126;28;20029;-32
2022/02/14 11:25:19;;;;;;;2.58;2.03;;;11.30;77.40;;;;;;5051926;28;20068;-31
2022/02/14 11:28:01;;;;;;;2.67;2.10;;;11.30;77.80;;;;;;5051940;28;20044;-30
2022/02/14 11:30:27;;;;;;;4.35;2.20;;;11.30;77.90;;;;;;5051905;28;20025;-32
2022/02/14 11:33:13;;;;;;;5.18;2.17;;;11.40;77.80;;;;;;5054186;28;20021;-32
2022/02/14 11:35:40;;;;;;;4.50;2.40;;;11.40;78.00;;;;;;5055773;28;20070;-32
2022/02/14 11:38:06;;;;;;;4.22;3.00;;;11.40;77.80;;;;;;5055555;28;20087;-33
2022/02/14 11:40:41;;;;;;;3.80;2.20;;;11.50;77.70;;;;;;5055388;28;20052;-32
2022/02/14 11:43:19;;;;;;;2.53;2.00;;;11.50;77.50;;;;;;5055399;28;20049;-31
2022/02/14 11:46:18;;;;;;;3.17;1.80;;;11.60;77.30;;;;;;5055168;28;20863;-31
2022/02/14 11:48:44;;;;;;;2.38;1.88;;;11.70;76.90;;;;;;5055563;28;20438;-31
2022/02/14 11:51:11;;;;;;;4.70;2.47;;;11.70;76.60;;;;;;5055241;28;20025;-32
2022/02/14 11:53:45;;;;;;;2.35;2.10;;;11.70;75.30;;;;;;5055362;28;20432;-31
2022/02/14 11:56:23;;;;;;;3.88;1.80;;;11.70;75.70;;;;;;5055206;28;20423;-31
2022/02/14 11:59:03;;;;;;;3.90;1.95;;;11.70;75.20;;;;;;5054888;28;20496;-32
2022/02/14 12:01:49;;;;;;;5.55;2.13;;;11.70;75.00;;;;;;5055110;28;20134;-31
2022/02/14 12:04:32;;;;;;;4.18;2.10;;;11.70;74.70;;;;;;5050754;28;20508;-32
2022/02/14 12:07:36;;;;;;;2.97;1.73;;;11.70;75.10;;;;;;5055049;28;20104;-32
2022/02/14 12:10:17;;;;;;;3.30;1.80;;;11.80;75.10;;;;;;5055009;28;20393;-31
2022/02/14 12:12:45;;;;;;;2.67;1.60;;;11.90;74.30;;;;;;5054955;28;20396;-33
2022/02/14 12:20:47;;;;;;;3.75;1.55;;;12.00;70.50;;;;;;5054796;28;20044;-34
2022/02/14 12:23:13;;;;;;;4.03;1.33;;;11.90;70.20;;;;;;5054684;28;20025;-32
2022/02/14 12:25:49;;;;;;;3.22;1.27;;;12.00;69.30;;;;;;5054354;28;20068;-30
2022/02/14 12:28:15;;;;;;;4.35;1.17;;;12.00;69.30;;;;;;5054397;28;20043;-31
2022/02/14 12:30:43;;;;;;;4.55;1.55;;;11.90;69.40;;;;;;5054373;28;20107;-32
2022/02/14 12:33:10;;;;;;;5.22;1.48;;;12.00;69.50;;;;;;5054341;28;20032;-31
2022/02/14 12:35:47;;;;;;;4.70;1.27;;;12.00;69.10;;;;;;5054368;28;20021;-30
2022/02/14 12:38:14;;;;;;;3.53;1.50;;;12.00;69.10;;;;;;5054336;28;20111;-33
2022/02/14 12:40:48;;;;;;;3.42;1.48;;;12.00;69.40;;;;;;5054362;28;20513;-32
2022/02/14 12:43:41;;;;;;;;;;;12.00;69.00;;;;;;5054015;28;20098;-33
2022/02/14 12:46:11;;;;;;;6.05;1.00;;;11.90;68.20;;;;;;5053584;28;19912;-34
2022/02/14 12:48:44;;;;;;;2.30;1.17;;;11.80;68.80;;;;;;5054113;28;20036;-32
2022/02/14 12:51:12;;;;;;;2.70;1.30;;;11.70;68.80;;;;;;5054124;28;20025;-32
2022/02/14 12:53:43;;;;;;;3.20;1.17;;;11.60;68.70;;;;;;5053836;28;20028;-32
2022/02/14 12:56:12;;;;;;;2.15;0.90;;;11.60;68.40;;;;;;5054148;28;20025;-31
2022/02/14 12:58:52;;;;;;;2.45;1.10;;;11.70;67.80;;;;;;5053931;28;20029;-32
2022/02/14 13:01:30;;;;;;;2.63;1.55;;;11.80;67.70;;;;;;5054134;28;20384;-31
2022/02/14 13:04:05;;;;;;;3.85;1.20;;;12.00;67.50;;;;;;5054008;28;20505;-32